createdAt,value
2022-09-28T00:01:08.849Z,98727.53
2022-09-28T00:03:37.655Z,98727.78
2022-09-28T00:06:07.674Z,98716.72
2022-09-28T00:08:35.980Z,98716.59
2022-09-28T00:11:05.433Z,98717.44
2022-09-28T00:13:34.034Z,98712.66
2022-09-28T00:16:08.648Z,98700.28
2022-09-28T00:18:36.979Z,98705.66
2022-09-28T00:21:10.007Z,98697.22
2022-09-28T00:23:59.526Z,98697.81
2022-09-28T00:26:27.561Z,98692.41
2022-09-28T00:28:57.107Z,98688.78
2022-09-28T00:31:26.779Z,98675.81
2022-09-28T00:33:57.641Z,98681.34
2022-09-28T00:36:26.863Z,98676.69
2022-09-28T00:38:55.190Z,98674.34
2022-09-28T00:41:24.305Z,98669.44
2022-09-28T00:43:52.772Z,98678.69
2022-09-28T00:46:26.508Z,98678.84
2022-09-28T00:48:59.790Z,98665.75
2022-09-28T00:51:28.151Z,98655.53
2022-09-28T00:53:57.405Z,98652.66
2022-09-28T00:56:29.281Z,98651.81
2022-09-28T00:58:59.548Z,98645.09
2022-09-28T01:01:28.537Z,98641.72
2022-09-28T01:03:59.030Z,98638.38
2022-09-28T01:06:33.067Z,98642.00
2022-09-28T01:09:04.010Z,98636.19
2022-09-28T01:11:33.405Z,98630.50
2022-09-28T01:14:03.834Z,98619.59
2022-09-28T01:16:40.796Z,98616.91
2022-09-28T01:19:47.684Z,98611.44
2022-09-28T01:22:31.853Z,98603.41
2022-09-28T01:25:11.842Z,98592.75
2022-09-28T01:27:44.189Z,98604.78
2022-09-28T01:30:15.974Z,98598.88
2022-09-28T01:32:52.081Z,98593.94
2022-09-28T01:35:24.656Z,98590.59
2022-09-28T01:37:54.707Z,98585.78
2022-09-28T01:40:25.701Z,98582.41
2022-09-28T01:43:00.285Z,98587.81
2022-09-28T01:45:32.275Z,98590.25
2022-09-28T01:48:04.342Z,98585.44
2022-09-28T01:50:38.567Z,98582.81
2022-09-28T01:53:13.326Z,98572.94
2022-09-28T01:55:45.784Z,98573.06
2022-09-28T01:58:19.867Z,98578.47
2022-09-28T02:00:56.881Z,98574.50
2022-09-28T02:03:30.738Z,98562.72
2022-09-28T02:06:05.791Z,98575.38
2022-09-28T02:08:38.132Z,98567.34
2022-09-28T02:11:14.118Z,98556.00
2022-09-28T02:13:47.275Z,98552.19
2022-09-28T02:16:21.194Z,98569.75
2022-09-28T02:18:52.952Z,98563.97
2022-09-28T02:21:27.293Z,98564.69
2022-09-28T02:23:58.374Z,98564.69
2022-09-28T02:26:32.193Z,98553.63
2022-09-28T02:29:01.679Z,98555.34
2022-09-28T02:31:30.287Z,98548.09
2022-09-28T02:34:00.143Z,98551.59
2022-09-28T02:36:28.739Z,98539.66
2022-09-28T02:38:58.650Z,98541.38
2022-09-28T02:41:38.256Z,98538.47
2022-09-28T02:44:20.043Z,98544.59
2022-09-28T02:46:57.881Z,98547.50
2022-09-28T02:49:38.694Z,98548.97
2022-09-28T02:52:26.848Z,98548.09
2022-09-28T02:55:14.325Z,98539.19
2022-09-28T02:57:52.965Z,98539.31
2022-09-28T03:00:26.105Z,98536.13
2022-09-28T03:03:05.070Z,98545.78
2022-09-28T03:05:46.287Z,98532.53
2022-09-28T03:08:23.017Z,98530.94
2022-09-28T03:10:56.897Z,98526.09
2022-09-28T03:13:26.996Z,98528.34
2022-09-28T03:16:11.920Z,98526.38
2022-09-28T03:18:41.119Z,98529.75
2022-09-28T03:21:11.928Z,98535.72
2022-09-28T03:23:40.547Z,98529.94
2022-09-28T03:26:09.081Z,98530.38
2022-09-28T03:28:37.234Z,98536.38
2022-09-28T03:31:07.902Z,98541.91
2022-09-28T03:33:38.210Z,98548.16
2022-09-28T03:36:08.657Z,98546.13
2022-09-28T03:38:39.692Z,98541.91
2022-09-28T03:41:09.397Z,98543.34
2022-09-28T03:43:41.163Z,98547.44
2022-09-28T03:46:10.696Z,98552.97
2022-09-28T03:48:43.770Z,98548.16
2022-09-28T03:51:13.604Z,98544.06
2022-09-28T03:53:41.899Z,98549.16
2022-09-28T03:56:14.420Z,98538.81
2022-09-28T03:58:43.194Z,98538.81
2022-09-28T04:01:17.707Z,98533.88
2022-09-28T04:03:47.995Z,98539.16
2022-09-28T04:06:16.094Z,98537.31
2022-09-28T04:08:44.062Z,98539.22
2022-09-28T04:11:12.722Z,98541.56
2022-09-28T04:13:41.411Z,98544.81
2022-09-28T04:16:14.349Z,98539.00
2022-09-28T04:18:48.270Z,98541.50
2022-09-28T04:21:38.445Z,98537.13
2022-09-28T04:24:11.733Z,98543.97
2022-09-28T04:26:39.798Z,98538.44
2022-09-28T04:29:19.104Z,98538.44
2022-09-28T04:31:55.883Z,98537.00
2022-09-28T04:34:35.889Z,98543.69
2022-09-28T04:37:05.123Z,98540.22
2022-09-28T04:39:33.007Z,98549.09
2022-09-28T04:42:01.627Z,98548.34
2022-09-28T04:44:32.989Z,98553.03
2022-09-28T04:47:06.655Z,98560.59
2022-09-28T04:49:52.578Z,98553.63
2022-09-28T04:52:31.492Z,98558.41
2022-09-28T04:54:59.497Z,98557.69
2022-09-28T04:57:28.518Z,98556.81
2022-09-28T04:59:56.458Z,98552.63
2022-09-28T05:02:24.629Z,98549.00
2022-09-28T05:05:26.362Z,98564.88
2022-09-28T05:08:31.283Z,98559.91
2022-09-28T05:11:00.699Z,98565.44
2022-09-28T05:13:29.836Z,98572.28
2022-09-28T05:16:04.390Z,98583.19
2022-09-28T05:18:38.374Z,98587.97
2022-09-28T05:21:21.324Z,98584.97
2022-09-28T05:23:49.367Z,98582.19
2022-09-28T05:26:18.111Z,98581.47
2022-09-28T05:28:46.209Z,98587.56
2022-09-28T05:31:33.082Z,98587.13
2022-09-28T05:34:07.139Z,98594.97
2022-09-28T05:36:39.050Z,98592.34
2022-09-28T05:39:07.367Z,98601.50
2022-09-28T05:41:36.046Z,98596.41
2022-09-28T05:44:04.224Z,98606.34
2022-09-28T05:46:32.547Z,98604.47
2022-09-28T05:49:02.190Z,98607.81
2022-09-28T05:51:30.218Z,98601.28
2022-09-28T05:54:05.706Z,98602.19
2022-09-28T05:56:34.961Z,98605.09
2022-09-28T05:59:06.491Z,98611.78
2022-09-28T06:01:34.690Z,98623.13
2022-09-28T06:04:03.584Z,98616.03
2022-09-28T06:06:32.629Z,98614.16
2022-09-28T06:09:02.046Z,98616.03
2022-09-28T06:11:41.886Z,98620.81
2022-09-28T06:14:19.237Z,98620.81
2022-09-28T06:16:47.574Z,98615.28
2022-09-28T06:19:15.679Z,98627.19
2022-09-28T06:22:01.444Z,98629.97
2022-09-28T06:24:37.509Z,98633.16
2022-09-28T06:27:05.624Z,98634.75
2022-09-28T06:29:33.762Z,98640.28
2022-09-28T06:32:02.787Z,98649.00
2022-09-28T06:34:30.868Z,98644.06
2022-09-28T06:36:59.975Z,98647.09
2022-09-28T06:39:29.356Z,98655.41
2022-09-28T06:41:58.745Z,98662.13
2022-09-28T06:44:34.830Z,98666.72
2022-09-28T06:47:41.794Z,98674.81
2022-09-28T06:50:19.764Z,98663.72
2022-09-28T06:52:57.085Z,98666.78
2022-09-28T06:55:32.907Z,98667.31
2022-09-28T06:58:06.647Z,98662.81
2022-09-28T07:00:36.930Z,98664.69
2022-09-28T07:03:07.119Z,98664.03
2022-09-28T07:06:04.706Z,98671.81
2022-09-28T07:09:11.435Z,98668.47
2022-09-28T07:12:10.123Z,98667.22
2022-09-28T07:14:56.034Z,98672.28
2022-09-28T07:17:24.577Z,98674.88
2022-09-28T07:20:00.554Z,98680.97
2022-09-28T07:22:42.037Z,98687.34
2022-09-28T07:25:14.203Z,98685.31
2022-09-28T07:28:09.420Z,98687.16
2022-09-28T07:30:48.174Z,98698.63
2022-09-28T07:33:32.778Z,98698.94
2022-09-28T07:36:17.799Z,98698.97
2022-09-28T07:38:45.943Z,98711.88
2022-09-28T07:41:14.102Z,98710.56
2022-09-28T07:43:50.761Z,98721.53
2022-09-28T07:46:21.128Z,98716.31
2022-09-28T07:48:56.629Z,98725.72
2022-09-28T07:51:53.792Z,98735.25
2022-09-28T07:54:21.757Z,98733.84
2022-09-28T07:57:13.300Z,98734.94
2022-09-28T08:00:14.970Z,98737.91
2022-09-28T08:02:46.403Z,98743.41
2022-09-28T08:05:18.999Z,98745.22
2022-09-28T08:07:46.921Z,98758.84
2022-09-28T08:10:15.136Z,98756.06
2022-09-28T08:13:04.775Z,98754.34
2022-09-28T08:16:02.574Z,98760.31
2022-09-28T08:18:43.044Z,98762.78
2022-09-28T08:21:29.105Z,98765.66
2022-09-28T08:23:57.452Z,98770.69
2022-09-28T08:26:25.680Z,98767.41
2022-09-28T08:28:53.748Z,98770.91
2022-09-28T08:31:56.319Z,98779.97
2022-09-28T08:34:50.758Z,98776.53
2022-09-28T08:37:30.722Z,98785.00
2022-09-28T08:40:24.567Z,98786.97
2022-09-28T08:43:07.405Z,98782.56
2022-09-28T08:45:54.228Z,98784.13
2022-09-28T08:49:20.691Z,98783.81
2022-09-28T08:52:01.182Z,98785.91
2022-09-28T08:54:49.991Z,98783.91
2022-09-28T08:57:31.251Z,98781.34
2022-09-28T09:00:02.471Z,98782.16
2022-09-28T09:02:39.429Z,98779.50
2022-09-28T09:05:22.567Z,98787.81
2022-09-28T09:08:24.955Z,98797.59
2022-09-28T09:10:57.774Z,98792.88
2022-09-28T09:14:06.179Z,98799.53
2022-09-28T09:16:42.460Z,98801.47
2022-09-28T09:19:36.686Z,98805.41
2022-09-28T09:22:34.187Z,98799.53
2022-09-28T09:25:14.654Z,98803.88
2022-09-28T09:27:59.119Z,98801.91
2022-09-28T09:30:33.680Z,98806.91
2022-09-28T09:33:23.013Z,98805.94
2022-09-28T09:36:20.779Z,98809.47
2022-09-28T09:39:20.028Z,98797.31
2022-09-28T09:42:26.658Z,98792.00
2022-09-28T09:45:49.300Z,98796.38
2022-09-28T09:48:41.036Z,98795.53
2022-09-28T09:51:18.830Z,98794.75
2022-09-28T09:53:50.843Z,98801.19
2022-09-28T09:56:26.839Z,98807.47
2022-09-28T09:59:07.918Z,98807.06
2022-09-28T10:01:42.336Z,98807.56
2022-09-28T10:04:38.539Z,98807.28
2022-09-28T10:07:22.106Z,98800.78
2022-09-28T10:09:53.551Z,98796.41
2022-09-28T10:12:44.409Z,98804.28
2022-09-28T10:15:17.476Z,98801.78
2022-09-28T10:18:06.500Z,98796.94
2022-09-28T10:20:53.125Z,98799.53
2022-09-28T10:23:38.801Z,98798.59
2022-09-28T10:26:12.042Z,98810.31
2022-09-28T10:28:46.193Z,98796.91
2022-09-28T10:31:41.065Z,98799.16
2022-09-28T10:34:17.207Z,98802.94
2022-09-28T10:36:50.654Z,98804.75
2022-09-28T10:39:36.126Z,98810.34
2022-09-28T10:42:08.757Z,98804.56
2022-09-28T10:44:54.973Z,98813.22
2022-09-28T10:47:55.659Z,98816.59
2022-09-28T10:50:26.427Z,98816.59
2022-09-28T10:53:16.997Z,98812.56
2022-09-28T10:56:21.112Z,98817.91
2022-09-28T10:58:52.978Z,98816.53
2022-09-28T11:01:34.521Z,98819.84
2022-09-28T11:04:08.349Z,98820.72
2022-09-28T11:06:39.689Z,98816.25
2022-09-28T11:09:30.598Z,98813.00
2022-09-28T11:12:05.830Z,98814.72
2022-09-28T11:14:41.314Z,98805.28
2022-09-28T11:17:16.946Z,98805.81
2022-09-28T11:19:47.482Z,98812.31
2022-09-28T11:22:24.465Z,98808.16
2022-09-28T11:25:31.271Z,98811.16
2022-09-28T11:28:04.122Z,98807.88
2022-09-28T11:30:35.765Z,98811.28
2022-09-28T11:33:30.550Z,98817.78
2022-09-28T11:36:44.247Z,98819.81
2022-09-28T11:39:16.347Z,98815.47
2022-09-28T11:41:58.870Z,98810.88
2022-09-28T11:44:41.213Z,98819.00
2022-09-28T11:47:38.631Z,98821.25
2022-09-28T11:50:17.859Z,98822.28
2022-09-28T11:52:56.559Z,98813.50
2022-09-28T11:55:32.310Z,98818.69
2022-09-28T11:58:09.560Z,98820.38
2022-09-28T12:00:43.289Z,98817.09
2022-09-28T12:03:17.133Z,98823.84
2022-09-28T12:05:50.253Z,98818.69
2022-09-28T12:08:25.424Z,98821.19
2022-09-28T12:11:26.067Z,98822.16
2022-09-28T12:14:21.558Z,98824.56
2022-09-28T12:17:11.254Z,98829.56
2022-09-28T12:19:48.546Z,98818.16
2022-09-28T12:22:22.005Z,98819.28
2022-09-28T12:24:55.140Z,98814.69
2022-09-28T12:27:31.042Z,98817.63
2022-09-28T12:30:06.107Z,98812.53
2022-09-28T12:32:39.933Z,98806.50
2022-09-28T12:35:14.008Z,98814.47
2022-09-28T12:37:58.936Z,98805.91
2022-09-28T12:40:39.049Z,98807.97
2022-09-28T12:43:25.161Z,98810.34
2022-09-28T12:46:11.859Z,98804.72
2022-09-28T12:49:56.255Z,98807.44
2022-09-28T12:51:55.872Z,98817.72
2022-09-28T12:54:45.675Z,98810.50
2022-09-28T12:57:30.094Z,98806.47
2022-09-28T13:00:05.580Z,98807.66
2022-09-28T13:03:01.014Z,98808.00
2022-09-28T13:05:55.702Z,98805.22
2022-09-28T13:08:31.377Z,98808.94
2022-09-28T13:11:09.642Z,98803.38
2022-09-28T13:13:48.246Z,98807.28
2022-09-28T13:16:23.660Z,98806.28
2022-09-28T13:19:01.587Z,98811.53
2022-09-28T13:21:39.260Z,98807.81
2022-09-28T13:24:31.032Z,98809.44
2022-09-28T13:27:06.879Z,98817.31
2022-09-28T13:29:36.772Z,98804.63
2022-09-28T13:32:06.167Z,98811.25
2022-09-28T13:34:37.717Z,98808.50
2022-09-28T13:37:11.201Z,98803.09
2022-09-28T13:39:48.722Z,98812.38
2022-09-28T13:42:51.762Z,98812.81
2022-09-28T13:46:04.381Z,98814.19
2022-09-28T13:48:48.495Z,98813.56
2022-09-28T13:51:38.600Z,98808.53
2022-09-28T13:54:38.188Z,98806.91
2022-09-28T13:57:19.928Z,98814.56
2022-09-28T14:00:02.406Z,98812.78
2022-09-28T14:02:45.621Z,98805.28
2022-09-28T14:05:47.262Z,98802.22
2022-09-28T14:08:29.654Z,98809.88
2022-09-28T14:10:58.648Z,98810.78
2022-09-28T14:14:07.158Z,98810.78
2022-09-28T14:16:36.164Z,98806.56
2022-09-28T14:19:08.889Z,98810.69
2022-09-28T14:21:57.992Z,98816.34
2022-09-28T14:24:35.401Z,98808.53
2022-09-28T14:27:32.363Z,98811.75
2022-09-28T14:30:18.251Z,98819.03
2022-09-28T14:32:53.864Z,98819.22
2022-09-28T14:35:29.653Z,98819.06
2022-09-28T14:38:21.555Z,98815.78
2022-09-28T14:41:12.674Z,98819.44
2022-09-28T14:44:04.224Z,98814.44
2022-09-28T14:46:38.200Z,98822.78
2022-09-28T14:49:47.478Z,98820.66
2022-09-28T14:52:38.793Z,98820.66
2022-09-28T14:55:16.114Z,98819.78
2022-09-28T14:57:44.165Z,98829.44
2022-09-28T15:00:22.419Z,98826.66
2022-09-28T15:02:52.730Z,98826.75
2022-09-28T15:05:24.933Z,98831.88
2022-09-28T15:07:55.188Z,98837.50
2022-09-28T15:10:31.268Z,98825.72
2022-09-28T15:13:02.212Z,98829.41
2022-09-28T15:15:35.018Z,98827.41
2022-09-28T15:18:17.884Z,98837.00
2022-09-28T15:20:48.983Z,98837.63
2022-09-28T15:23:28.965Z,98832.63
2022-09-28T15:25:58.385Z,98842.38
2022-09-28T15:28:26.328Z,98834.00
2022-09-28T15:31:00.740Z,98831.97
2022-09-28T15:33:47.760Z,98834.38
2022-09-28T15:36:20.552Z,98833.19
2022-09-28T15:38:55.914Z,98841.56
2022-09-28T15:41:26.586Z,98836.84
2022-09-28T15:44:30.362Z,98835.19
2022-09-28T15:47:10.917Z,98828.81
2022-09-28T15:49:42.592Z,98830.25
2022-09-28T15:52:27.188Z,98830.97
2022-09-28T15:54:56.220Z,98834.91
2022-09-28T15:57:37.966Z,98839.75
2022-09-28T16:00:22.754Z,98838.63
2022-09-28T16:03:01.942Z,98841.00
2022-09-28T16:05:37.795Z,98845.94
2022-09-28T16:08:06.805Z,98846.47
2022-09-28T16:10:35.829Z,98845.66
2022-09-28T16:13:26.529Z,98847.50
2022-09-28T16:15:59.959Z,98841.44
2022-09-28T16:18:30.246Z,98845.53
2022-09-28T16:21:21.982Z,98853.59
2022-09-28T16:23:53.154Z,98852.44
2022-09-28T16:26:32.084Z,98848.22
2022-09-28T16:29:07.019Z,98854.13
2022-09-28T16:31:35.057Z,98854.81
2022-09-28T16:34:19.743Z,98858.50
2022-09-28T16:36:49.432Z,98858.06
2022-09-28T16:39:18.569Z,98855.34
2022-09-28T16:41:49.592Z,98859.19
2022-09-28T16:44:24.563Z,98858.88
2022-09-28T16:46:57.276Z,98861.94
2022-09-28T16:49:26.271Z,98852.56
2022-09-28T16:51:54.515Z,98854.03
2022-09-28T16:54:42.354Z,98863.09
2022-09-28T16:57:13.251Z,98864.53
2022-09-28T16:59:42.730Z,98861.88
2022-09-28T17:02:35.418Z,98866.13
2022-09-28T17:05:06.995Z,98864.94
2022-09-28T17:07:36.416Z,98864.69
2022-09-28T17:10:10.163Z,98867.09
2022-09-28T17:12:38.189Z,98863.22
2022-09-28T17:15:08.451Z,98869.25
2022-09-28T17:17:38.125Z,98870.94
2022-09-28T17:20:18.491Z,98873.84
2022-09-28T17:22:46.424Z,98878.88
2022-09-28T17:25:14.613Z,98875.94
2022-09-28T17:27:45.412Z,98883.03
2022-09-28T17:30:16.111Z,98879.03
2022-09-28T17:32:47.094Z,98883.94
2022-09-28T17:35:25.361Z,98891.50
2022-09-28T17:37:54.138Z,98891.84
2022-09-28T17:40:24.919Z,98889.63
2022-09-28T17:42:56.019Z,98903.66
2022-09-28T17:45:28.426Z,98893.69
2022-09-28T17:47:57.269Z,98894.66
2022-09-28T17:50:27.752Z,98895.03
2022-09-28T17:52:57.604Z,98894.06
2022-09-28T17:55:28.471Z,98895.94
2022-09-28T17:57:57.411Z,98897.25
2022-09-28T18:00:27.805Z,98902.09
2022-09-28T18:02:56.350Z,98894.41
2022-09-28T18:05:25.615Z,98902.03
2022-09-28T18:07:53.831Z,98891.25
2022-09-28T18:10:23.876Z,98897.38
2022-09-28T18:12:51.814Z,98896.53
2022-09-28T18:15:20.219Z,98905.13
2022-09-28T18:17:49.550Z,98908.34
2022-09-28T18:20:17.523Z,98901.06
2022-09-28T18:22:45.526Z,98912.28
2022-09-28T18:25:13.490Z,98908.50
2022-09-28T18:27:41.465Z,98911.28
2022-09-28T18:30:10.339Z,98908.09
2022-09-28T18:32:38.456Z,98913.63
2022-09-28T18:35:11.091Z,98916.38
2022-09-28T18:37:39.880Z,98921.91
2022-09-28T18:40:09.382Z,98917.97
2022-09-28T18:42:37.349Z,98926.41
2022-09-28T18:45:07.626Z,98924.22
2022-09-28T18:47:35.635Z,98918.53
2022-09-28T18:50:04.382Z,98923.19
2022-09-28T18:52:36.750Z,98927.69
2022-09-28T18:55:05.564Z,98926.25
2022-09-28T18:57:34.069Z,98932.94
2022-09-28T19:00:02.917Z,98940.91
2022-09-28T19:02:31.042Z,98940.75
2022-09-28T19:04:59.076Z,98938.59
2022-09-28T19:07:27.139Z,98943.38
2022-09-28T19:09:56.440Z,98946.56
2022-09-28T19:12:24.795Z,98947.16
2022-09-28T19:14:52.878Z,98947.31
2022-09-28T19:17:21.603Z,98957.78
2022-09-28T19:19:51.554Z,98959.22
2022-09-28T19:22:19.354Z,98949.81
2022-09-28T19:24:47.370Z,98948.91
2022-09-28T19:27:16.691Z,98940.91
2022-09-28T19:29:44.684Z,98949.34
2022-09-28T19:32:12.810Z,98951.22
2022-09-28T19:34:40.913Z,98954.00
2022-09-28T19:37:08.973Z,98957.91
2022-09-28T19:39:37.093Z,98952.09
2022-09-28T19:42:05.361Z,98957.03
2022-09-28T19:44:35.660Z,98962.41
2022-09-28T19:47:07.427Z,98960.66
2022-09-28T19:49:37.562Z,98964.59
2022-09-28T19:52:13.235Z,98964.44
2022-09-28T19:54:43.694Z,98968.19
2022-09-28T19:57:12.759Z,98962.34
2022-09-28T19:59:42.064Z,98973.13
2022-09-28T20:02:11.891Z,98972.81
2022-09-28T20:04:39.982Z,98979.16
2022-09-28T20:07:07.961Z,98975.69
2022-09-28T20:09:35.973Z,98972.16
2022-09-28T20:12:04.127Z,98984.53
2022-09-28T20:14:36.511Z,98984.22
2022-09-28T20:17:09.120Z,98993.50
2022-09-28T20:19:37.081Z,98990.13
2022-09-28T20:22:05.133Z,98997.91
2022-09-28T20:24:33.496Z,98990.78
2022-09-28T20:27:02.381Z,98996.16
2022-09-28T20:29:32.006Z,99003.44
2022-09-28T20:32:00.325Z,99003.44
2022-09-28T20:34:29.843Z,99006.38
2022-09-28T20:36:57.847Z,99003.75
2022-09-28T20:39:25.898Z,99012.78
2022-09-28T20:41:56.223Z,99005.81
2022-09-28T20:44:24.262Z,99006.19
2022-09-28T20:46:52.644Z,99005.63
2022-09-28T20:49:20.537Z,99010.28
2022-09-28T20:51:49.852Z,99006.63
2022-09-28T20:54:18.004Z,99012.72
2022-09-28T20:56:47.990Z,99011.09
2022-09-28T20:59:16.147Z,99012.41
2022-09-28T21:01:44.398Z,99010.38
2022-09-28T21:04:12.632Z,99012.25
2022-09-28T21:06:42.743Z,99010.22
2022-09-28T21:09:13.154Z,99006.75
2022-09-28T21:11:41.455Z,99012.25
2022-09-28T21:14:10.529Z,99011.09
2022-09-28T21:16:38.939Z,99010.13
2022-09-28T21:19:07.225Z,99006.19
2022-09-28T21:21:35.400Z,99010.75
2022-09-28T21:24:03.550Z,99015.13
2022-09-28T21:26:33.427Z,99011.38
2022-09-28T21:29:02.178Z,99008.34
2022-09-28T21:31:32.556Z,99002.25
2022-09-28T21:34:00.932Z,99011.41
2022-09-28T21:36:28.857Z,99009.38
2022-09-28T21:38:56.804Z,99003.13
2022-09-28T21:41:25.186Z,99006.78
2022-09-28T21:43:54.589Z,99009.69
2022-09-28T21:46:22.638Z,99001.31
2022-09-28T21:48:53.282Z,99000.72
2022-09-28T21:51:22.177Z,99000.72
2022-09-28T21:53:50.257Z,99005.50
2022-09-28T21:56:18.530Z,99005.50
2022-09-28T21:58:46.925Z,99009.59
2022-09-28T22:01:19.515Z,99017.88
2022-09-28T22:03:50.758Z,99011.47
2022-09-28T22:06:20.184Z,99005.34
2022-09-28T22:08:49.457Z,99015.50
2022-09-28T22:11:19.287Z,99013.53
2022-09-28T22:13:47.773Z,99016.56
2022-09-28T22:16:18.805Z,99013.94
2022-09-28T22:18:47.222Z,99014.41
2022-09-28T22:21:17.911Z,99014.44
2022-09-28T22:23:46.161Z,99021.16
2022-09-28T22:26:18.969Z,99024.63
2022-09-28T22:28:48.365Z,99020.16
2022-09-28T22:31:19.325Z,99019.59
2022-09-28T22:33:47.952Z,99019.44
2022-09-28T22:36:16.822Z,99021.47
2022-09-28T22:38:45.752Z,99012.16
2022-09-28T22:41:15.704Z,99025.25
2022-09-28T22:43:44.197Z,99027.16
2022-09-28T22:46:13.974Z,99022.03
2022-09-28T22:48:47.745Z,99024.03
2022-09-28T22:51:16.161Z,99019.03
2022-09-28T22:53:44.758Z,99019.47
2022-09-28T22:56:17.634Z,99023.50
2022-09-28T22:58:47.491Z,99021.81
2022-09-28T23:01:17.666Z,99017.63
2022-09-28T23:03:47.303Z,99019.34
2022-09-28T23:06:17.485Z,99019.59
2022-09-28T23:08:47.163Z,99017.66
2022-09-28T23:11:15.801Z,99014.28
2022-09-28T23:13:44.083Z,99023.13
2022-09-28T23:16:14.576Z,99024.13
2022-09-28T23:18:43.601Z,99022.25
2022-09-28T23:21:15.991Z,99023.69
2022-09-28T23:23:44.412Z,99026.44
2022-09-28T23:26:13.492Z,99026.78
2022-09-28T23:28:42.248Z,99027.50
2022-09-28T23:31:12.015Z,99029.28
2022-09-28T23:33:39.891Z,99030.22
2022-09-28T23:36:08.943Z,99034.75
2022-09-28T23:38:38.888Z,99034.75
2022-09-28T23:41:06.945Z,99029.38
2022-09-28T23:43:36.076Z,99025.22
2022-09-28T23:46:04.389Z,99021.59
2022-09-28T23:48:32.802Z,99031.00
2022-09-28T23:51:00.908Z,99033.47
2022-09-28T23:53:29.079Z,99025.44
2022-09-28T23:55:58.289Z,99033.25
2022-09-28T23:58:26.486Z,99023.34
